ADDS METAR Data INFO
IDs: Format: Raw Decoded Include TAF

Data at: 2305 UTC 15 Jul 2018

METAR for:KSFB (Sanford Intl, FL, US)
Text:KSFB 152253Z 00000KT 10SM CLR 32/23 A3000 RMK AO2 SLP156 T03170228
Temperature: 31.7°C ( 89°F)
Dewpoint: 22.8°C ( 73°F) [RH = 59%]
Pressure (altimeter):30.00 inches Hg (1016.0 mb) [Sea level pressure: 1015.6 mb]
Winds:calm
Visibility:10 or more sm (16+ km)
Ceiling:at least 12,000 feet AGL
Clouds:sky clear below 12,000 feet AGL